createdAt,value
2018-03-11T00:00:56.758Z,37.80
2018-03-11T00:03:25.152Z,37.70
2018-03-11T00:05:53.452Z,37.90
2018-03-11T00:08:21.692Z,37.90
2018-03-11T00:10:49.919Z,37.90
2018-03-11T00:13:18.712Z,37.80
2018-03-11T00:15:47.247Z,37.90
2018-03-11T00:18:16.369Z,37.90
2018-03-11T00:20:44.677Z,37.90
2018-03-11T00:23:20.291Z,37.90
2018-03-11T00:25:49.538Z,37.90
2018-03-11T00:28:17.844Z,38.00
2018-03-11T00:30:46.117Z,38.00
2018-03-11T00:33:14.367Z,38.00
2018-03-11T00:35:43.250Z,38.00
2018-03-11T00:38:12.602Z,38.00
2018-03-11T00:40:41.537Z,38.00
2018-03-11T00:43:09.792Z,38.00
2018-03-11T00:45:38.796Z,38.00
2018-03-11T00:48:07.065Z,38.00
2018-03-11T00:50:35.467Z,38.00
2018-03-11T00:53:03.655Z,38.10
2018-03-11T00:55:31.932Z,38.00
2018-03-11T00:58:00.235Z,38.10
2018-03-11T01:00:29.246Z,38.10
2018-03-11T01:02:57.462Z,38.10
2018-03-11T01:05:25.822Z,38.30
2018-03-11T01:07:55.334Z,38.30
2018-03-11T01:10:23.611Z,38.30
2018-03-11T01:12:51.869Z,38.30
2018-03-11T01:15:20.051Z,38.20
2018-03-11T01:17:48.287Z,38.30
2018-03-11T01:20:17.235Z,38.10
2018-03-11T01:22:53.751Z,38.10
2018-03-11T01:25:22.025Z,38.20
2018-03-11T01:28:01.529Z,38.10
2018-03-11T01:30:29.866Z,38.00
2018-03-11T01:32:58.076Z,38.10
2018-03-11T01:35:26.288Z,38.00
2018-03-11T01:37:55.247Z,38.00
2018-03-11T01:40:23.453Z,38.00
2018-03-11T01:42:51.931Z,38.00
2018-03-11T01:45:27.459Z,38.00
2018-03-11T01:47:55.941Z,38.00
2018-03-11T01:50:24.957Z,38.00
2018-03-11T01:53:09.727Z,38.00
2018-03-11T01:55:37.950Z,37.90
2018-03-11T01:58:06.969Z,38.00
2018-03-11T02:00:35.921Z,38.00
2018-03-11T02:03:04.172Z,38.00
2018-03-11T02:05:34.495Z,38.00
2018-03-11T02:08:04.264Z,38.00
2018-03-11T02:10:32.518Z,38.00
2018-03-11T02:13:00.783Z,38.10
2018-03-11T02:15:29.303Z,38.10
2018-03-11T02:17:57.509Z,38.20
2018-03-11T02:20:25.688Z,38.10
2018-03-11T02:22:53.932Z,38.00
2018-03-11T02:25:22.961Z,38.00
2018-03-11T02:27:51.190Z,38.00
2018-03-11T02:30:20.140Z,38.00
2018-03-11T02:32:48.433Z,37.90
2018-03-11T02:35:16.755Z,38.00
2018-03-11T02:37:44.969Z,38.00
2018-03-11T02:40:13.362Z,38.00
2018-03-11T02:42:41.568Z,38.00
2018-03-11T02:45:09.800Z,38.00
2018-03-11T02:47:38.059Z,37.90
2018-03-11T02:50:06.240Z,37.90
2018-03-11T02:52:34.434Z,37.90
2018-03-11T02:55:02.593Z,38.00
2018-03-11T02:57:31.533Z,38.10
2018-03-11T03:00:00.576Z,38.10
2018-03-11T03:02:28.816Z,38.70
2018-03-11T03:04:57.007Z,38.10
2018-03-11T03:07:25.220Z,38.20
2018-03-11T03:09:53.424Z,38.20
2018-03-11T03:12:21.693Z,38.20
2018-03-11T03:14:49.975Z,38.20
2018-03-11T03:17:18.278Z,38.10
2018-03-11T03:19:46.482Z,38.20
2018-03-11T03:22:14.700Z,38.80
2018-03-11T03:24:42.915Z,38.20
2018-03-11T03:27:11.141Z,38.30
2018-03-11T03:29:40.101Z,38.30
2018-03-11T03:32:08.373Z,38.40
2018-03-11T03:34:36.556Z,38.40
2018-03-11T03:37:04.760Z,38.40
2018-03-11T03:39:32.961Z,38.50
2018-03-11T03:42:01.153Z,38.60
2018-03-11T03:44:29.340Z,38.60
2018-03-11T03:46:57.520Z,38.50
2018-03-11T03:49:25.767Z,38.70
2018-03-11T03:51:53.962Z,38.80
2018-03-11T03:54:22.129Z,38.70
2018-03-11T03:56:50.370Z,38.90
2018-03-11T03:59:19.818Z,38.90
2018-03-11T04:01:48.113Z,38.90
2018-03-11T04:04:16.427Z,39.10
2018-03-11T04:06:44.803Z,39.10
2018-03-11T04:09:13.025Z,39.10
2018-03-11T04:11:41.228Z,39.30
2018-03-11T04:14:09.421Z,39.20
2018-03-11T04:16:37.639Z,39.30
2018-03-11T04:19:05.864Z,39.20
2018-03-11T04:21:34.082Z,39.80
2018-03-11T04:24:02.372Z,39.30
2018-03-11T04:26:30.599Z,39.30
2018-03-11T04:28:58.763Z,39.30
2018-03-11T04:31:26.989Z,39.30
2018-03-11T04:33:55.151Z,39.30
2018-03-11T04:36:23.318Z,39.50
2018-03-11T04:38:51.516Z,39.40
2018-03-11T04:41:19.682Z,39.40
2018-03-11T04:43:47.881Z,39.50
2018-03-11T04:46:16.910Z,39.60
2018-03-11T04:48:45.171Z,39.50
2018-03-11T04:51:13.392Z,39.50
2018-03-11T04:53:41.568Z,39.60
2018-03-11T04:56:09.754Z,39.50
2018-03-11T04:58:38.754Z,39.50
2018-03-11T05:01:07.737Z,39.50
2018-03-11T05:03:36.740Z,39.70
2018-03-11T05:06:05.680Z,39.70
2018-03-11T05:08:33.844Z,39.60
2018-03-11T05:11:02.292Z,39.50
2018-03-11T05:13:31.233Z,39.50
2018-03-11T05:15:59.444Z,39.50
2018-03-11T05:18:28.374Z,39.60
2018-03-11T05:20:56.608Z,39.60
2018-03-11T05:23:24.778Z,39.50
2018-03-11T05:25:53.774Z,39.50
2018-03-11T05:28:22.718Z,39.60
2018-03-11T05:30:50.920Z,39.60
2018-03-11T05:33:19.119Z,39.50
2018-03-11T05:35:55.119Z,39.50
2018-03-11T05:38:23.293Z,39.50
2018-03-11T05:40:51.519Z,39.50
2018-03-11T05:43:19.754Z,39.50
2018-03-11T05:45:47.911Z,39.50
2018-03-11T05:48:16.902Z,39.60
2018-03-11T05:50:45.046Z,39.60
2018-03-11T05:53:13.202Z,39.60
2018-03-11T05:55:41.402Z,39.60
2018-03-11T05:58:10.358Z,39.50
2018-03-11T06:00:38.543Z,40.00
2018-03-11T06:03:06.821Z,39.40
2018-03-11T06:05:34.996Z,39.50
2018-03-11T06:08:03.168Z,39.40
2018-03-11T06:10:31.414Z,39.40
2018-03-11T06:12:59.595Z,39.40
2018-03-11T06:15:27.809Z,39.20
2018-03-11T06:17:55.994Z,39.20
2018-03-11T06:20:24.223Z,39.10
2018-03-11T06:22:53.160Z,39.00
2018-03-11T06:25:21.407Z,39.00
2018-03-11T06:27:49.590Z,39.00
2018-03-11T06:30:17.755Z,38.90
2018-03-11T06:32:45.941Z,38.90
2018-03-11T06:35:14.160Z,38.80
2018-03-11T06:37:42.361Z,38.80
2018-03-11T06:40:11.318Z,38.80
2018-03-11T06:42:39.492Z,38.70
2018-03-11T06:45:07.719Z,38.70
2018-03-11T06:47:35.918Z,38.70
2018-03-11T06:50:04.071Z,38.80
2018-03-11T06:52:32.346Z,38.80
2018-03-11T06:55:00.579Z,38.80
2018-03-11T06:57:33.249Z,38.80
2018-03-11T07:00:01.523Z,38.80
2018-03-11T07:02:31.540Z,38.80
2018-03-11T07:04:59.770Z,38.80
2018-03-11T07:07:39.392Z,38.90
2018-03-11T07:10:07.859Z,38.80
2018-03-11T07:12:38.650Z,38.80
2018-03-11T07:15:07.113Z,38.80
2018-03-11T07:17:40.518Z,38.80
2018-03-11T07:20:09.702Z,38.90
2018-03-11T07:22:38.040Z,38.90
2018-03-11T07:25:07.036Z,38.90
2018-03-11T07:27:35.445Z,38.90
2018-03-11T07:30:03.630Z,38.90
2018-03-11T07:32:31.843Z,39.00
2018-03-11T07:35:00.068Z,39.00
2018-03-11T07:37:28.244Z,39.10
2018-03-11T07:39:56.465Z,39.10
2018-03-11T07:42:24.646Z,39.00
2018-03-11T07:44:53.583Z,39.10
2018-03-11T07:47:21.775Z,39.10
2018-03-11T07:49:49.933Z,39.00
2018-03-11T07:52:18.145Z,39.00
2018-03-11T07:54:46.406Z,39.10
2018-03-11T07:57:14.647Z,39.10
2018-03-11T07:59:42.880Z,39.20
2018-03-11T08:02:11.087Z,39.30
2018-03-11T08:04:39.329Z,39.30
2018-03-11T08:07:07.594Z,39.30
2018-03-11T08:09:38.163Z,39.30
2018-03-11T08:12:06.415Z,39.40
2018-03-11T08:14:35.387Z,39.70
2018-03-11T08:17:03.539Z,39.60
2018-03-11T08:19:31.690Z,39.70
2018-03-11T08:21:59.923Z,39.70
2018-03-11T08:24:28.161Z,39.80
2018-03-11T08:26:56.372Z,39.90
2018-03-11T08:29:25.311Z,39.80
2018-03-11T08:31:53.485Z,39.80
2018-03-11T08:34:21.655Z,39.70
2018-03-11T08:36:50.663Z,39.80
2018-03-11T08:39:18.875Z,39.70
2018-03-11T08:41:47.412Z,39.80
2018-03-11T08:44:15.588Z,39.80
2018-03-11T08:46:43.875Z,39.90
2018-03-11T08:49:12.056Z,40.00
2018-03-11T08:51:40.229Z,40.20
2018-03-11T08:54:08.402Z,40.00
2018-03-11T08:56:36.659Z,40.00
2018-03-11T08:59:04.825Z,40.10
2018-03-11T09:01:33.010Z,40.00
2018-03-11T09:04:01.221Z,40.00
2018-03-11T09:06:29.430Z,40.10
2018-03-11T09:08:59.307Z,40.10
2018-03-11T09:11:27.598Z,40.10
2018-03-11T09:13:55.806Z,40.20
2018-03-11T09:16:24.026Z,40.10
2018-03-11T09:18:52.319Z,40.10
2018-03-11T09:21:21.287Z,40.30
2018-03-11T09:23:49.482Z,40.30
2018-03-11T09:26:18.423Z,40.40
2018-03-11T09:28:46.594Z,40.40
2018-03-11T09:31:14.764Z,40.40
2018-03-11T09:33:42.910Z,40.50
2018-03-11T09:36:11.104Z,40.50
2018-03-11T09:38:39.295Z,40.50
2018-03-11T09:41:07.520Z,40.60
2018-03-11T09:43:47.065Z,40.70
2018-03-11T09:46:15.259Z,40.70
2018-03-11T09:48:43.463Z,40.70
2018-03-11T09:51:11.679Z,40.60
2018-03-11T09:53:40.702Z,40.70
2018-03-11T09:56:09.753Z,40.50
2018-03-11T09:58:38.758Z,40.60
2018-03-11T10:01:06.911Z,40.60
2018-03-11T10:03:35.886Z,40.50
2018-03-11T10:06:04.022Z,40.50
2018-03-11T10:08:32.188Z,40.50
2018-03-11T10:11:00.353Z,40.40
2018-03-11T10:13:28.503Z,40.40
2018-03-11T10:15:57.532Z,40.40
2018-03-11T10:18:25.815Z,40.40
2018-03-11T10:20:57.645Z,40.60
2018-03-11T10:23:26.664Z,40.50
2018-03-11T10:25:54.891Z,40.50
2018-03-11T10:28:23.779Z,40.60
2018-03-11T10:30:52.733Z,40.60
2018-03-11T10:33:21.015Z,40.60
2018-03-11T10:35:49.374Z,40.60
2018-03-11T10:38:17.527Z,40.60
2018-03-11T10:40:46.375Z,40.50
2018-03-11T10:43:17.236Z,40.50
2018-03-11T10:45:45.567Z,40.60
2018-03-11T10:48:29.169Z,40.90
2018-03-11T10:50:58.723Z,40.90
2018-03-11T10:53:28.403Z,40.80
2018-03-11T10:55:58.784Z,41.00
2018-03-11T10:58:27.112Z,41.00
2018-03-11T11:00:55.509Z,41.10
2018-03-11T11:03:42.628Z,41.10
2018-03-11T11:06:11.193Z,40.60
2018-03-11T11:08:40.205Z,41.00
2018-03-11T11:11:08.654Z,41.00
2018-03-11T11:13:38.578Z,40.80
2018-03-11T11:16:06.818Z,40.80
2018-03-11T11:18:35.159Z,41.00
2018-03-11T11:21:04.190Z,41.30
2018-03-11T11:23:32.426Z,41.20
2018-03-11T11:26:01.411Z,41.30
2018-03-11T11:28:30.368Z,41.50
2018-03-11T11:30:58.703Z,41.50
2018-03-11T11:33:26.933Z,41.50
2018-03-11T11:35:56.619Z,41.50
2018-03-11T11:38:29.419Z,41.50
2018-03-11T11:41:00.898Z,41.40
2018-03-11T11:43:35.888Z,41.40
2018-03-11T11:48:48.576Z,41.90
2018-03-11T12:06:08.245Z,42.60
2018-03-11T12:08:38.349Z,42.40
2018-03-11T12:11:13.977Z,42.70
2018-03-11T12:31:08.447Z,42.50
2018-03-11T12:33:38.905Z,42.40
2018-03-11T12:36:07.948Z,42.20
2018-03-11T12:40:06.861Z,42.10
2018-03-11T12:42:35.965Z,41.70
2018-03-11T12:45:05.986Z,42.10
2018-03-11T12:50:22.439Z,42.00
2018-03-11T12:52:54.711Z,42.00
2018-03-11T12:55:23.302Z,42.00
2018-03-11T12:57:54.271Z,42.10
2018-03-11T13:00:23.675Z,42.00
2018-03-11T13:02:51.859Z,42.20
2018-03-11T13:05:52.406Z,42.40
2018-03-11T13:08:22.639Z,42.40
2018-03-11T13:10:52.974Z,42.50
2018-03-11T13:13:21.121Z,42.40
2018-03-11T13:15:49.289Z,42.30
2018-03-11T13:18:17.469Z,42.40
2018-03-11T13:21:03.362Z,42.20
2018-03-11T13:23:31.528Z,42.20
2018-03-11T13:25:59.735Z,42.20
2018-03-11T13:28:45.958Z,42.30
2018-03-11T13:31:14.152Z,42.50
2018-03-11T13:34:00.047Z,42.40
2018-03-11T13:39:27.296Z,42.70
2018-03-11T13:42:18.765Z,42.70
2018-03-11T13:45:12.627Z,42.70
2018-03-11T13:47:40.906Z,42.70
2018-03-11T13:50:09.104Z,42.90
2018-03-11T13:52:56.114Z,43.10
2018-03-11T13:55:24.802Z,42.70
2018-03-11T13:58:29.472Z,43.20
2018-03-11T14:00:57.763Z,42.60
2018-03-11T14:03:43.080Z,42.60
2018-03-11T14:30:53.606Z,42.40
2018-03-11T14:33:23.206Z,42.30
2018-03-11T14:35:52.145Z,42.20
2018-03-11T14:38:20.456Z,42.20
2018-03-11T14:40:48.643Z,42.40
2018-03-11T14:43:17.586Z,42.30
2018-03-11T14:45:45.746Z,42.30
2018-03-11T14:48:13.910Z,42.10
2018-03-11T14:50:42.092Z,42.40
2018-03-11T14:53:10.392Z,42.40
2018-03-11T14:55:38.560Z,42.50
2018-03-11T14:58:06.730Z,42.70
2018-03-11T15:00:36.451Z,42.70
2018-03-11T15:03:04.646Z,42.70
2018-03-11T15:05:32.856Z,42.70
2018-03-11T15:08:01.042Z,42.60
2018-03-11T15:10:30.155Z,42.50
2018-03-11T15:12:58.340Z,42.50
2018-03-11T15:18:00.411Z,42.30
2018-03-11T15:20:28.589Z,42.30
2018-03-11T15:22:56.756Z,42.30
2018-03-11T15:28:23.606Z,42.30
2018-03-11T15:30:51.753Z,42.30
2018-03-11T15:33:22.893Z,42.30
2018-03-11T15:38:42.017Z,42.30
2018-03-11T15:41:10.584Z,42.30
2018-03-11T15:43:38.941Z,42.40
2018-03-11T15:46:07.271Z,42.30
2018-03-11T15:48:36.669Z,42.30
2018-03-11T15:51:06.029Z,42.30
2018-03-11T15:53:34.597Z,42.20
2018-03-11T15:56:02.924Z,42.10
2018-03-11T15:58:31.906Z,41.90
2018-03-11T16:01:00.087Z,41.90
2018-03-11T16:03:28.325Z,41.90
2018-03-11T16:05:56.693Z,41.90
2018-03-11T16:08:24.920Z,41.90
2018-03-11T16:10:53.146Z,41.90
2018-03-11T16:13:22.872Z,41.90
2018-03-11T16:15:51.161Z,41.90
2018-03-11T16:18:19.348Z,41.90
2018-03-11T16:20:47.539Z,41.90
2018-03-11T16:23:15.768Z,42.00
2018-03-11T16:25:50.229Z,42.20
2018-03-11T16:28:18.395Z,42.20
2018-03-11T16:30:46.589Z,42.30
2018-03-11T16:33:14.827Z,42.30
2018-03-11T16:35:43.115Z,42.20
2018-03-11T16:38:12.093Z,42.20
2018-03-11T16:40:40.310Z,42.20
2018-03-11T16:43:09.254Z,42.20
2018-03-11T16:45:37.524Z,42.20
2018-03-11T16:48:06.657Z,42.10
2018-03-11T16:50:41.287Z,42.20
2018-03-11T16:53:20.244Z,42.20
2018-03-11T16:58:50.074Z,42.00
2018-03-11T17:01:18.377Z,42.10
2018-03-11T17:03:46.695Z,42.10
2018-03-11T17:06:15.724Z,42.40
2018-03-11T17:08:44.483Z,42.00
2018-03-11T17:11:15.888Z,42.00
2018-03-11T17:13:51.320Z,42.00
2018-03-11T17:19:24.201Z,42.00
2018-03-11T17:22:26.552Z,42.00
2018-03-11T17:24:59.605Z,42.00
2018-03-11T17:27:30.258Z,41.90
2018-03-11T17:30:13.945Z,41.90
2018-03-11T17:32:42.534Z,41.80
2018-03-11T17:35:10.776Z,41.90
2018-03-11T17:37:43.807Z,41.80
2018-03-11T17:40:48.702Z,41.90
2018-03-11T17:43:17.958Z,42.00
2018-03-11T17:46:02.914Z,41.80
2018-03-11T17:48:31.287Z,41.80
2018-03-11T17:50:59.540Z,41.90
2018-03-11T17:53:27.729Z,41.90
2018-03-11T17:55:55.929Z,41.90
2018-03-11T18:04:15.271Z,41.70
2018-03-11T18:06:43.563Z,41.80
2018-03-11T18:09:11.801Z,41.80
2018-03-11T18:11:40.798Z,41.80
2018-03-11T18:14:09.855Z,41.70
2018-03-11T18:16:38.954Z,41.70
2018-03-11T18:19:07.142Z,41.80
2018-03-11T18:21:35.312Z,41.80
2018-03-11T18:24:03.507Z,41.70
2018-03-11T18:26:32.443Z,41.80
2018-03-11T18:29:00.669Z,41.80
2018-03-11T18:31:29.767Z,41.90
2018-03-11T18:33:57.955Z,41.90
2018-03-11T18:36:28.345Z,41.80
2018-03-11T18:38:56.585Z,41.80
2018-03-11T18:41:26.577Z,41.90
2018-03-11T18:43:54.728Z,41.80
2018-03-11T19:10:20.303Z,42.10
2018-03-11T19:17:53.220Z,42.20
2018-03-11T19:23:16.702Z,42.50
2018-03-11T19:26:12.944Z,42.40
2018-03-11T19:28:59.241Z,42.30
2018-03-11T19:34:10.411Z,42.20
2018-03-11T19:36:40.291Z,42.20
2018-03-11T19:39:10.380Z,42.20
2018-03-11T19:42:10.144Z,42.10
2018-03-11T19:44:53.805Z,42.20
2018-03-11T19:47:42.283Z,42.20
2018-03-11T19:53:17.906Z,42.20
2018-03-11T20:02:17.471Z,42.40
2018-03-11T20:04:52.292Z,42.40
2018-03-11T20:18:30.574Z,43.00
2018-03-11T20:21:09.612Z,42.70
2018-03-11T20:23:39.193Z,42.70
2018-03-11T20:26:12.356Z,42.60
2018-03-11T20:34:26.084Z,42.60
2018-03-11T20:36:57.915Z,42.60
2018-03-11T20:39:58.807Z,42.60
2018-03-11T20:42:38.465Z,42.50
2018-03-11T20:45:23.008Z,42.60
2018-03-11T20:48:29.296Z,42.60
2018-03-11T21:09:17.497Z,42.60
2018-03-11T21:38:50.224Z,43.00
2018-03-11T21:41:18.490Z,43.10
2018-03-11T21:43:46.735Z,43.10
2018-03-11T21:46:15.984Z,43.20
2018-03-11T21:48:47.731Z,43.10
2018-03-11T21:51:16.049Z,43.10
2018-03-11T21:53:44.272Z,43.20
2018-03-11T21:56:12.537Z,43.10
2018-03-11T21:58:40.715Z,43.10
2018-03-11T22:01:08.899Z,43.10
2018-03-11T22:03:37.098Z,43.10
2018-03-11T22:06:05.325Z,43.10
2018-03-11T22:08:33.476Z,43.30
2018-03-11T22:11:01.643Z,43.30
2018-03-11T22:13:29.855Z,43.50
2018-03-11T22:15:58.049Z,43.60
2018-03-11T22:18:26.985Z,43.90
2018-03-11T22:20:55.313Z,43.90
2018-03-11T22:23:24.212Z,43.80
2018-03-11T22:25:52.399Z,43.90
2018-03-11T22:28:20.553Z,44.00
2018-03-11T22:30:49.491Z,43.90
2018-03-11T22:33:17.661Z,43.90
2018-03-11T22:35:45.863Z,44.00
2018-03-11T22:38:14.033Z,44.10
2018-03-11T22:40:42.245Z,44.20
2018-03-11T22:43:10.408Z,44.00
2018-03-11T22:45:38.637Z,44.00
2018-03-11T22:48:07.641Z,44.10
2018-03-11T23:18:28.439Z,44.40
2018-03-11T23:24:33.834Z,44.10
2018-03-11T23:27:19.755Z,44.10
